Time;durP1;ratioP1;P1;durP2;ratioP2;P2;SDS_P1;SDS_P2;PMS_P1;PMS_P2;Temp;Humidity;BMP_temperature;BMP_pressure;BME280_temperature;BME280_humidity;BME280_pressure;Samples;Min_cycle;Max_cycle;Signal;HPM_P1;HPM_P2
2021/04/26 00:01:34;;;;;;;10.80;6.30;;;4.20;84.10;;;;;;5094424;28;20641;-78
2021/04/26 00:04:01;;;;;;;14.43;6.93;;;4.20;84.70;;;;;;5095843;28;20184;-79
2021/04/26 00:06:27;;;;;;;13.70;5.23;;;4.10;84.80;;;;;;5099437;28;20172;-78
2021/04/26 00:08:52;;;;;;;7.13;4.53;;;4.10;84.90;;;;;;5099528;28;20202;-78
2021/04/26 00:11:18;;;;;;;13.37;5.40;;;4.00;84.10;;;;;;5080745;28;20732;-78
2021/04/26 00:13:44;;;;;;;9.53;5.53;;;4.00;85.90;;;;;;5081323;28;20200;-79
2021/04/26 00:16:09;;;;;;;11.83;4.87;;;3.90;86.50;;;;;;5080654;28;20530;-78
2021/04/26 00:18:35;;;;;;;12.63;4.10;;;3.90;86.10;;;;;;5099429;28;20192;-78
2021/04/26 00:21:01;;;;;;;7.20;4.57;;;3.80;86.20;;;;;;5080644;28;20188;-79
2021/04/26 00:23:26;;;;;;;10.73;4.50;;;3.80;86.30;;;;;;5099598;28;20176;-78
2021/04/26 00:25:52;;;;;;;6.27;4.00;;;3.80;86.10;;;;;;5099288;28;20183;-79
2021/04/26 00:28:18;;;;;;;5.47;3.30;;;3.80;86.20;;;;;;5099897;28;20512;-78
2021/04/26 00:30:44;;;;;;;6.67;3.53;;;3.70;87.30;;;;;;5099294;28;20173;-78
2021/04/26 00:33:09;;;;;;;6.27;3.77;;;3.70;88.60;;;;;;5099793;28;20176;-79
2021/04/26 00:35:36;;;;;;;6.17;3.53;;;3.70;90.30;;;;;;5081453;28;20259;-78
2021/04/26 00:38:02;;;;;;;6.90;3.97;;;3.60;90.00;;;;;;5081495;28;20576;-78
2021/04/26 00:40:27;;;;;;;5.07;3.23;;;3.50;90.00;;;;;;5081436;28;20438;-78
2021/04/26 00:42:54;;;;;;;4.20;3.03;;;3.40;90.40;;;;;;5099487;28;20168;-78
2021/04/26 00:45:22;;;;;;;6.33;3.37;;;3.40;91.60;;;;;;5081729;28;20180;-79
2021/04/26 00:47:49;;;;;;;7.23;3.47;;;3.40;90.90;;;;;;5100622;28;20402;-78
2021/04/26 00:50:21;;;;;;;6.60;3.17;;;3.40;91.00;;;;;;5102961;28;20429;-78
2021/04/26 00:52:49;;;;;;;7.87;3.30;;;3.40;91.40;;;;;;5086081;28;20406;-79
2021/04/26 00:55:15;;;;;;;6.73;3.90;;;3.40;91.90;;;;;;5104731;28;20188;-78
2021/04/26 00:57:41;;;;;;;6.20;3.83;;;3.40;92.00;;;;;;5105670;28;20405;-78
2021/04/26 01:00:10;;;;;;;6.20;3.73;;;3.30;92.00;;;;;;5087149;28;20440;-78
2021/04/26 01:02:36;;;;;;;4.90;3.57;;;3.40;92.20;;;;;;5105428;28;20473;-78
2021/04/26 01:05:05;;;;;;;6.47;3.40;;;3.40;92.30;;;;;;5087156;28;20930;-78
2021/04/26 01:07:34;;;;;;;7.77;4.00;;;3.40;92.10;;;;;;5087899;28;20413;-78
2021/04/26 01:10:04;;;;;;;12.80;3.93;;;3.30;92.60;;;;;;5106538;28;20509;-78
2021/04/26 01:12:52;;;;;;;5.27;3.13;;;3.30;93.90;;;;;;5087406;28;20492;-78
2021/04/26 01:15:25;;;;;;;5.97;3.13;;;3.30;93.60;;;;;;5107244;28;20484;-78
2021/04/26 01:17:56;;;;;;;8.83;3.90;;;3.30;94.10;;;;;;5088096;28;20465;-78
2021/04/26 01:20:31;;;;;;;6.03;3.67;;;3.30;93.20;;;;;;5087684;28;20452;-78
2021/04/26 01:23:18;;;;;;;5.63;3.40;;;3.20;93.80;;;;;;5110577;28;20402;-79
2021/04/26 01:25:45;;;;;;;5.47;3.33;;;3.10;94.70;;;;;;5115034;28;20525;-78
2021/04/26 01:28:40;;;;;;;5.83;3.50;;;3.10;94.70;;;;;;5114516;28;20465;-78
2021/04/26 01:31:20;;;;;;;4.93;3.30;;;3.10;95.80;;;;;;5104056;28;20436;-78
2021/04/26 01:33:56;;;;;;;4.80;3.50;;;3.00;95.60;;;;;;5101933;28;20441;-78
2021/04/26 01:36:27;;;;;;;5.50;3.70;;;2.90;96.30;;;;;;5101745;28;20398;-78
2021/04/26 01:38:56;;;;;;;4.80;3.13;;;2.90;96.90;;;;;;5101923;28;20509;-78
2021/04/26 01:41:28;;;;;;;5.73;3.50;;;2.90;98.00;;;;;;5101532;28;20408;-78
2021/04/26 01:43:55;;;;;;;8.17;4.00;;;2.80;98.40;;;;;;5083339;28;20417;-78
2021/04/26 01:46:22;;;;;;;8.40;3.00;;;2.70;98.80;;;;;;5101614;28;20872;-78
2021/04/26 01:48:50;;;;;;;4.73;3.27;;;2.70;99.50;;;;;;5082911;28;20431;-78
2021/04/26 01:51:17;;;;;;;6.47;3.63;;;2.70;99.90;;;;;;5101645;28;20406;-78
2021/04/26 01:53:46;;;;;;;6.83;3.40;;;2.60;99.90;;;;;;5101554;28;20456;-78
2021/04/26 01:56:13;;;;;;;4.60;3.43;;;2.60;99.90;;;;;;5083199;28;20410;-78
2021/04/26 01:58:46;;;;;;;7.97;4.03;;;2.50;99.90;;;;;;5101412;28;20927;-78
2021/04/26 02:01:17;;;;;;;6.93;3.80;;;2.50;99.90;;;;;;5100880;28;20469;-78
2021/04/26 02:03:56;;;;;;;6.10;3.67;;;2.50;99.90;;;;;;5102170;28;20403;-78
2021/04/26 02:06:22;;;;;;;5.47;3.33;;;2.40;99.90;;;;;;5102006;28;20433;-79
2021/04/26 02:08:49;;;;;;;5.47;3.57;;;2.50;99.90;;;;;;5083077;28;20936;-78
2021/04/26 02:11:15;;;;;;;6.27;3.80;;;2.40;99.90;;;;;;5083917;28;20411;-78
2021/04/26 02:13:43;;;;;;;8.07;4.00;;;2.30;99.90;;;;;;5083627;28;20506;-79
2021/04/26 02:16:09;;;;;;;4.50;3.23;;;2.40;99.90;;;;;;5101519;28;20200;-78
2021/04/26 02:18:35;;;;;;;5.57;3.80;;;2.30;99.90;;;;;;5102160;28;20792;-78
2021/04/26 02:21:01;;;;;;;6.03;3.53;;;2.30;99.90;;;;;;5083862;28;20188;-78
2021/04/26 02:23:29;;;;;;;7.97;3.30;;;2.40;99.90;;;;;;5083546;28;20472;-78
2021/04/26 02:25:55;;;;;;;8.47;3.73;;;2.40;99.90;;;;;;5101854;28;20743;-78
2021/04/26 02:28:21;;;;;;;6.23;4.03;;;2.30;99.90;;;;;;5083913;28;20412;-78
2021/04/26 02:30:48;;;;;;;4.87;3.80;;;2.60;99.90;;;;;;5083662;28;20210;-79
2021/04/26 02:33:18;;;;;;;5.80;3.80;;;2.40;99.90;;;;;;5083462;28;20180;-78
2021/04/26 02:35:53;;;;;;;7.80;4.17;;;2.40;99.90;;;;;;5102110;28;20907;-78
2021/04/26 02:38:27;;;;;;;7.40;4.03;;;2.40;99.90;;;;;;5083846;28;20468;-78
2021/04/26 02:40:58;;;;;;;5.60;3.63;;;2.40;99.90;;;;;;5084050;28;20403;-78
2021/04/26 02:43:24;;;;;;;10.77;4.27;;;2.40;99.90;;;;;;5102214;28;20438;-78
2021/04/26 02:45:57;;;;;;;7.20;4.27;;;2.40;99.90;;;;;;5102681;28;20457;-79
2021/04/26 02:48:24;;;;;;;9.63;4.07;;;2.50;99.90;;;;;;5083982;28;20406;-79
2021/04/26 02:50:58;;;;;;;4.00;3.53;;;2.40;99.90;;;;;;5102279;28;20425;-78
2021/04/26 02:53:27;;;;;;;7.17;4.00;;;2.40;99.90;;;;;;5102989;28;20792;-79
2021/04/26 02:55:59;;;;;;;4.73;3.90;;;2.40;99.90;;;;;;5102010;28;20409;-78
2021/04/26 02:58:26;;;;;;;5.27;3.73;;;2.20;99.90;;;;;;5084375;28;20437;-78
2021/04/26 03:00:52;;;;;;;7.63;3.87;;;2.00;99.90;;;;;;5103271;28;20466;-79
2021/04/26 03:03:19;;;;;;;5.57;3.57;;;2.00;99.90;;;;;;5100769;28;20173;-78
2021/04/26 03:05:48;;;;;;;6.37;3.73;;;2.00;99.90;;;;;;5079069;28;20242;-78
2021/04/26 03:08:15;;;;;;;6.00;4.13;;;1.90;99.90;;;;;;5099577;28;20525;-79
2021/04/26 03:10:41;;;;;;;6.17;3.90;;;1.90;99.90;;;;;;5100192;28;20200;-78
2021/04/26 03:13:07;;;;;;;9.17;3.93;;;1.80;99.90;;;;;;5100418;28;20625;-79
2021/04/26 03:15:33;;;;;;;10.13;4.10;;;1.90;99.90;;;;;;5082403;28;20176;-79
2021/04/26 03:18:00;;;;;;;7.60;4.33;;;1.90;99.90;;;;;;5100188;28;20641;-79
2021/04/26 03:20:26;;;;;;;10.03;5.50;;;2.00;99.90;;;;;;5082740;28;20225;-78
2021/04/26 03:22:53;;;;;;;151.23;43.90;;;2.00;99.90;;;;;;5082204;28;20245;-78
2021/04/26 03:25:21;;;;;;;40.40;14.87;;;1.90;99.90;;;;;;5100418;28;20233;-78
2021/04/26 03:27:51;;;;;;;19.00;8.07;;;2.00;99.90;;;;;;5100716;28;20877;-78
2021/04/26 03:30:19;;;;;;;7.03;4.83;;;2.00;99.90;;;;;;5099848;28;20250;-78
2021/04/26 03:32:48;;;;;;;8.43;5.27;;;2.00;99.90;;;;;;5081175;28;20452;-78
2021/04/26 03:35:17;;;;;;;8.17;4.70;;;2.00;99.90;;;;;;5079290;28;20308;-78
2021/04/26 03:37:48;;;;;;;5.87;4.37;;;2.10;99.90;;;;;;5099403;28;20207;-78
2021/04/26 03:40:18;;;;;;;5.63;4.33;;;2.00;99.90;;;;;;5081328;28;20257;-79
2021/04/26 03:42:44;;;;;;;10.97;4.03;;;1.90;99.90;;;;;;5100285;28;20167;-78
2021/04/26 03:45:16;;;;;;;7.60;4.10;;;1.90;99.90;;;;;;5099022;28;20259;-78
2021/04/26 03:47:43;;;;;;;10.23;4.60;;;1.90;99.90;;;;;;5098996;28;20196;-78
2021/04/26 03:50:10;;;;;;;7.60;4.10;;;1.80;99.90;;;;;;5097314;28;20204;-78
2021/04/26 03:52:37;;;;;;;7.20;4.20;;;1.80;99.90;;;;;;5100719;28;20184;-78
2021/04/26 03:55:04;;;;;;;7.37;4.43;;;1.80;99.90;;;;;;5082058;28;20235;-80
2021/04/26 03:57:30;;;;;;;7.23;4.37;;;1.70;99.90;;;;;;5078083;28;20177;-80
2021/04/26 03:59:57;;;;;;;5.77;4.80;;;1.70;99.90;;;;;;5099843;28;20247;-79
2021/04/26 04:02:26;;;;;;;7.53;5.23;;;1.60;99.90;;;;;;5101465;28;20605;-79
2021/04/26 04:04:52;;;;;;;8.57;4.57;;;1.60;99.90;;;;;;5101012;28;20176;-79
2021/04/26 04:07:17;;;;;;;6.97;4.63;;;1.70;99.90;;;;;;5083752;28;20181;-78
2021/04/26 04:09:43;;;;;;;8.03;4.80;;;1.70;99.90;;;;;;5082138;28;20209;-79
2021/04/26 04:12:09;;;;;;;7.63;4.90;;;1.60;99.90;;;;;;5101388;28;20183;-79
2021/04/26 04:14:34;;;;;;;6.03;4.37;;;1.70;99.90;;;;;;5082715;28;20253;-79
2021/04/26 04:17:03;;;;;;;9.10;4.60;;;1.70;99.90;;;;;;5083487;28;20179;-79
2021/04/26 04:19:29;;;;;;;9.90;4.97;;;1.70;99.90;;;;;;5101794;28;20192;-79
2021/04/26 04:21:55;;;;;;;12.47;4.90;;;1.70;99.90;;;;;;5100907;28;20203;-79
2021/04/26 04:24:21;;;;;;;8.67;4.87;;;1.80;99.90;;;;;;5082966;28;20180;-79
2021/04/26 04:26:46;;;;;;;11.33;5.10;;;1.70;99.90;;;;;;5104902;28;20183;-79
2021/04/26 04:29:12;;;;;;;8.20;5.70;;;1.70;99.90;;;;;;5086618;28;20202;-79
2021/04/26 04:31:38;;;;;;;9.03;5.23;;;1.70;99.90;;;;;;5104436;28;20187;-79
2021/04/26 04:34:03;;;;;;;11.10;5.50;;;1.60;99.90;;;;;;5086046;28;20575;-79
2021/04/26 04:36:29;;;;;;;8.23;4.90;;;1.80;99.90;;;;;;5103825;28;20174;-78
2021/04/26 04:38:55;;;;;;;8.40;5.50;;;1.70;99.90;;;;;;5084857;28;20218;-78
2021/04/26 04:41:21;;;;;;;7.90;5.07;;;1.70;99.90;;;;;;5111845;28;20168;-79
2021/04/26 04:43:49;;;;;;;16.80;5.87;;;1.80;99.90;;;;;;5093423;28;20213;-78
2021/04/26 04:46:33;;;;;;;10.30;5.37;;;1.70;99.90;;;;;;5095420;28;20530;-79
2021/04/26 04:49:04;;;;;;;10.67;6.20;;;1.70;99.90;;;;;;5088798;28;20203;-79
2021/04/26 04:51:30;;;;;;;8.23;5.57;;;1.70;99.90;;;;;;5107573;28;20176;-78
2021/04/26 04:54:00;;;;;;;8.23;5.83;;;1.80;99.90;;;;;;5107120;28;20207;-79
2021/04/26 04:56:29;;;;;;;10.43;5.57;;;1.70;99.90;;;;;;5107871;28;20193;-79
2021/04/26 04:58:54;;;;;;;9.33;5.83;;;2.00;99.90;;;;;;5088968;28;20189;-78
2021/04/26 05:01:20;;;;;;;11.10;6.53;;;1.90;99.90;;;;;;5097648;28;20255;-78
2021/04/26 05:03:46;;;;;;;9.20;5.23;;;2.00;99.90;;;;;;5079927;28;20181;-78
2021/04/26 05:06:12;;;;;;;9.33;6.00;;;2.10;99.90;;;;;;5097333;28;20172;-78
2021/04/26 05:08:38;;;;;;;8.17;5.53;;;2.10;99.90;;;;;;5074751;28;20315;-77
2021/04/26 05:11:03;;;;;;;10.27;6.03;;;2.20;99.90;;;;;;5058512;28;20263;-78
2021/04/26 05:13:29;;;;;;;15.13;5.50;;;2.20;99.90;;;;;;5058528;28;20225;-77
2021/04/26 05:15:55;;;;;;;9.33;5.17;;;2.30;99.90;;;;;;5058502;28;20182;-77
2021/04/26 05:18:21;;;;;;;8.33;5.13;;;2.30;99.90;;;;;;5058483;28;20178;-77
2021/04/26 05:20:47;;;;;;;11.07;5.60;;;2.40;99.90;;;;;;5076097;28;20670;-77
2021/04/26 05:23:13;;;;;;;8.97;5.70;;;2.40;99.90;;;;;;5058186;28;20170;-77
2021/04/26 05:25:39;;;;;;;11.17;5.77;;;2.40;99.90;;;;;;5058429;28;20261;-77
2021/04/26 05:28:06;;;;;;;8.50;5.97;;;2.60;99.90;;;;;;5075900;28;20169;-77
2021/04/26 05:30:33;;;;;;;9.67;5.60;;;2.60;99.90;;;;;;5079330;28;20170;-78
2021/04/26 05:32:59;;;;;;;13.03;5.43;;;2.70;99.90;;;;;;5058122;28;20648;-77
2021/04/26 05:35:25;;;;;;;10.23;5.37;;;2.80;99.90;;;;;;5058666;28;20664;-78
2021/04/26 05:37:51;;;;;;;9.20;5.43;;;2.90;99.90;;;;;;5076393;28;20176;-77
2021/04/26 05:40:17;;;;;;;13.23;5.33;;;3.00;99.90;;;;;;5076847;28;20217;-78
2021/04/26 05:42:43;;;;;;;7.70;5.47;;;3.00;99.90;;;;;;5059817;28;20544;-78
2021/04/26 05:45:09;;;;;;;9.40;5.83;;;3.10;99.90;;;;;;5060120;28;20609;-78
2021/04/26 05:47:35;;;;;;;8.90;5.33;;;3.30;99.90;;;;;;5060458;28;20189;-80
2021/04/26 05:50:00;;;;;;;6.57;5.23;;;3.40;99.90;;;;;;5078083;28;20202;-78
2021/04/26 05:52:26;;;;;;;7.90;5.27;;;3.30;99.90;;;;;;5077855;28;20193;-78
2021/04/26 05:54:52;;;;;;;8.83;4.87;;;3.40;99.90;;;;;;5077538;28;20202;-78
2021/04/26 05:57:19;;;;;;;7.27;5.00;;;3.40;99.90;;;;;;5060615;28;20634;-78
2021/04/26 05:59:44;;;;;;;7.37;4.63;;;3.50;99.90;;;;;;5061313;28;20194;-78
2021/04/26 06:02:10;;;;;;;6.83;5.33;;;3.50;99.90;;;;;;5078783;28;20532;-78
2021/04/26 06:04:36;;;;;;;9.60;5.43;;;3.70;99.90;;;;;;5077365;28;20259;-78
2021/04/26 06:07:01;;;;;;;8.77;5.23;;;3.70;99.90;;;;;;5077953;28;20179;-78
2021/04/26 06:09:27;;;;;;;11.00;5.30;;;3.70;99.90;;;;;;5077315;28;20202;-78
2021/04/26 06:11:53;;;;;;;6.27;5.10;;;3.70;99.90;;;;;;5077096;28;20180;-78
2021/04/26 06:14:18;;;;;;;7.17;5.00;;;3.70;99.90;;;;;;5078053;28;20202;-78
2021/04/26 06:16:44;;;;;;;9.03;5.30;;;3.80;99.90;;;;;;5062709;28;20174;-78
2021/04/26 06:19:10;;;;;;;6.27;4.63;;;3.80;99.90;;;;;;5094426;28;20185;-79
2021/04/26 06:21:35;;;;;;;10.97;5.00;;;3.90;99.90;;;;;;5066329;28;20556;-78
2021/04/26 06:24:01;;;;;;;7.83;5.37;;;4.00;99.90;;;;;;5082781;28;20183;-77
2021/04/26 06:26:27;;;;;;;8.53;4.67;;;4.10;99.90;;;;;;5065428;28;20183;-78
2021/04/26 06:28:52;;;;;;;8.60;5.50;;;4.20;99.90;;;;;;5066131;28;20204;-79
2021/04/26 06:31:18;;;;;;;6.27;5.17;;;4.30;99.90;;;;;;5065309;28;20187;-78
2021/04/26 06:33:44;;;;;;;10.87;5.67;;;4.50;99.90;;;;;;5064414;28;20206;-78
2021/04/26 06:36:10;;;;;;;6.67;4.27;;;4.50;99.90;;;;;;5079857;28;20178;-78
2021/04/26 06:38:36;;;;;;;8.10;5.03;;;4.60;99.90;;;;;;5081249;28;20196;-81
2021/04/26 06:41:02;;;;;;;9.63;5.17;;;4.70;99.90;;;;;;5068257;28;20212;-79
2021/04/26 06:43:28;;;;;;;6.43;4.67;;;4.80;99.90;;;;;;5086833;28;20166;-80
2021/04/26 06:45:56;;;;;;;8.07;4.63;;;4.90;99.90;;;;;;5086172;28;20182;-80
2021/04/26 06:48:23;;;;;;;8.00;5.00;;;5.10;99.90;;;;;;5085831;28;20532;-81
2021/04/26 06:50:49;;;;;;;8.40;5.20;;;5.40;99.90;;;;;;5065251;28;20179;-78
2021/04/26 06:53:19;;;;;;;8.83;4.80;;;5.60;99.90;;;;;;5071131;28;20265;-80
2021/04/26 06:55:44;;;;;;;5.77;4.63;;;5.70;99.90;;;;;;5068663;28;20186;-79
2021/04/26 06:58:10;;;;;;;9.97;5.10;;;5.90;99.90;;;;;;5066076;28;20624;-79
2021/04/26 07:00:36;;;;;;;8.50;5.23;;;6.00;99.90;;;;;;5084111;28;20657;-80
2021/04/26 07:03:03;;;;;;;7.00;4.67;;;6.10;99.90;;;;;;5065705;28;20628;-79
2021/04/26 07:05:29;;;;;;;6.47;5.10;;;6.30;99.90;;;;;;5083216;28;20260;-79
2021/04/26 07:07:54;;;;;;;7.33;4.80;;;6.60;99.90;;;;;;5082892;28;20199;-79
2021/04/26 07:10:20;;;;;;;5.90;4.33;;;6.90;99.90;;;;;;5082747;28;20218;-80
2021/04/26 07:12:46;;;;;;;8.37;4.50;;;7.10;99.90;;;;;;5063517;28;20180;-79
2021/04/26 07:15:14;;;;;;;7.00;4.37;;;7.20;99.90;;;;;;5080461;28;20287;-79
2021/04/26 07:17:40;;;;;;;9.53;4.70;;;7.40;99.90;;;;;;5062847;28;20172;-79
2021/04/26 07:20:08;;;;;;;9.20;5.13;;;7.40;99.90;;;;;;5062108;28;20537;-79
2021/04/26 07:22:34;;;;;;;12.33;4.67;;;7.60;99.90;;;;;;5080969;28;20175;-79
2021/04/26 07:25:02;;;;;;;9.13;5.03;;;7.80;99.90;;;;;;5061672;28;20194;-79
2021/04/26 07:27:28;;;;;;;7.87;4.63;;;7.90;99.90;;;;;;5080380;28;20207;-79
2021/04/26 07:29:54;;;;;;;13.07;5.10;;;8.00;99.90;;;;;;5064345;28;20202;-80
2021/04/26 07:32:20;;;;;;;7.80;4.97;;;8.30;99.90;;;;;;5065696;28;20181;-80
2021/04/26 07:34:46;;;;;;;9.30;5.00;;;8.50;99.90;;;;;;5083910;28;20201;-80
2021/04/26 07:37:11;;;;;;;10.00;5.47;;;8.80;99.90;;;;;;5084564;28;20323;-80
2021/04/26 07:39:37;;;;;;;7.50;4.33;;;9.00;99.90;;;;;;5083716;28;20226;-80
2021/04/26 07:42:03;;;;;;;10.03;4.97;;;9.40;99.90;;;;;;5084388;28;20199;-80
2021/04/26 07:44:29;;;;;;;7.37;4.73;;;10.00;99.90;;;;;;5084067;28;20184;-80
2021/04/26 07:46:56;;;;;;;6.47;4.33;;;10.80;99.90;;;;;;5066965;28;20713;-80
2021/04/26 07:49:22;;;;;;;11.47;4.10;;;11.30;98.40;;;;;;5084761;28;20204;-80
2021/04/26 07:51:48;;;;;;;6.33;4.40;;;11.70;96.50;;;;;;5085624;28;20173;-81
2021/04/26 07:54:14;;;;;;;5.20;3.70;;;11.90;95.80;;;;;;5084354;28;20654;-81
2021/04/26 07:56:40;;;;;;;8.40;4.60;;;12.20;93.00;;;;;;5084911;28;20184;-80
2021/04/26 07:59:06;;;;;;;6.77;4.23;;;11.90;92.70;;;;;;5067016;28;20193;-80
2021/04/26 08:01:32;;;;;;;7.27;4.03;;;11.70;92.50;;;;;;5066629;28;20634;-80
2021/04/26 08:03:57;;;;;;;9.97;3.90;;;11.80;92.50;;;;;;5080834;28;20204;-80
2021/04/26 08:06:23;;;;;;;8.30;4.13;;;12.70;92.20;;;;;;5079975;28;20173;-78
2021/04/26 08:08:48;;;;;;;7.37;3.83;;;13.20;88.80;;;;;;5061760;28;20205;-78
2021/04/26 08:11:14;;;;;;;5.13;4.10;;;13.70;86.30;;;;;;5056772;28;20181;-79
2021/04/26 08:13:40;;;;;;;10.20;4.00;;;14.00;81.60;;;;;;5075624;28;20204;-79
2021/04/26 08:16:05;;;;;;;6.67;3.77;;;14.10;81.10;;;;;;5061869;28;20184;-78
2021/04/26 08:18:31;;;;;;;5.30;3.90;;;14.40;79.70;;;;;;5081660;28;20219;-78
2021/04/26 08:20:57;;;;;;;5.70;3.57;;;14.80;76.60;;;;;;5062763;28;20192;-79
2021/04/26 08:23:23;;;;;;;6.53;4.00;;;15.30;72.00;;;;;;5082545;28;20169;-79
2021/04/26 08:25:49;;;;;;;12.43;5.13;;;15.60;73.50;;;;;;5079375;28;20183;-78
2021/04/26 08:28:16;;;;;;;6.40;3.87;;;15.30;67.20;;;;;;5063944;28;20181;-78
2021/04/26 08:30:42;;;;;;;5.20;3.60;;;14.60;65.70;;;;;;5061574;28;20693;-79
2021/04/26 08:33:08;;;;;;;4.47;3.27;;;14.50;68.00;;;;;;5080564;28;20177;-79
2021/04/26 08:35:33;;;;;;;4.47;3.50;;;14.60;67.10;;;;;;5080445;28;20205;-79
2021/04/26 08:37:59;;;;;;;7.10;4.00;;;14.00;67.50;;;;;;5080285;28;20181;-78
2021/04/26 08:40:25;;;;;;;7.87;4.60;;;13.50;68.20;;;;;;5062505;28;20239;-79
2021/04/26 08:42:51;;;;;;;5.60;4.10;;;13.10;70.70;;;;;;5080664;28;20659;-78
2021/04/26 08:45:19;;;;;;;6.60;3.90;;;12.80;72.70;;;;;;5061861;28;20177;-79
2021/04/26 08:47:45;;;;;;;4.23;3.17;;;12.80;75.00;;;;;;5079849;28;20256;-80
2021/04/26 08:50:12;;;;;;;11.07;3.80;;;13.20;70.40;;;;;;5077739;28;20201;-78
2021/04/26 08:52:40;;;;;;;6.37;3.97;;;13.40;70.00;;;;;;5058977;28;20197;-78
2021/04/26 08:55:07;;;;;;;9.70;3.47;;;13.70;67.10;;;;;;5079134;28;20584;-78
2021/04/26 08:57:33;;;;;;;6.20;3.73;;;14.10;69.20;;;;;;5061295;28;20665;-78
2021/04/26 08:59:58;;;;;;;5.40;3.70;;;14.60;63.70;;;;;;5079635;28;20303;-78
2021/04/26 09:02:24;;;;;;;7.93;3.80;;;14.50;61.70;;;;;;5061685;28;20658;-78
2021/04/26 09:04:56;;;;;;;5.00;3.30;;;14.30;66.30;;;;;;5060423;28;20205;-78
2021/04/26 09:07:23;;;;;;;6.20;3.53;;;14.90;64.30;;;;;;5079153;28;20197;-79
2021/04/26 09:09:53;;;;;;;6.63;3.20;;;15.30;61.20;;;;;;5063718;28;20228;-79
2021/04/26 09:12:21;;;;;;;5.73;3.50;;;15.60;62.30;;;;;;5083272;28;20178;-79
2021/04/26 09:14:49;;;;;;;7.07;3.47;;;15.20;58.70;;;;;;5082425;28;20205;-79
2021/04/26 09:17:36;;;;;;;7.83;4.00;;;15.00;60.40;;;;;;5083201;28;20658;-78
2021/04/26 09:20:17;;;;;;;4.47;3.60;;;15.00;61.20;;;;;;5064331;28;20688;-79
2021/04/26 09:22:52;;;;;;;7.47;3.47;;;15.30;58.10;;;;;;5064881;28;20283;-79
2021/04/26 09:25:20;;;;;;;8.07;3.43;;;15.20;59.50;;;;;;5082459;28;20175;-78
2021/04/26 09:28:04;;;;;;;4.30;3.03;;;15.50;59.30;;;;;;5063821;28;20279;-78
2021/04/26 09:30:51;;;;;;;4.97;3.33;;;15.60;61.30;;;;;;5083202;28;20204;-79
2021/04/26 09:33:18;;;;;;;5.77;3.33;;;15.60;57.90;;;;;;5064325;28;20176;-78
2021/04/26 09:35:45;;;;;;;6.90;3.40;;;15.90;57.30;;;;;;5064363;28;20256;-79
2021/04/26 09:38:28;;;;;;;5.30;3.20;;;16.00;57.80;;;;;;5083256;28;20173;-79
2021/04/26 09:41:25;;;;;;;7.10;2.90;;;16.10;57.00;;;;;;5065014;28;20168;-78
2021/04/26 09:43:59;;;;;;;5.63;2.70;;;16.40;51.20;;;;;;5083252;28;20225;-79
2021/04/26 09:46:51;;;;;;;5.63;3.53;;;16.70;53.00;;;;;;5064827;28;20177;-78
2021/04/26 09:49:20;;;;;;;10.87;3.30;;;16.60;51.80;;;;;;5084357;28;20196;-79
2021/04/26 09:51:54;;;;;;;3.40;2.57;;;16.40;51.40;;;;;;5064485;28;20192;-79
2021/04/26 09:54:42;;;;;;;6.23;2.57;;;16.00;48.10;;;;;;5082649;28;20200;-79
2021/04/26 09:57:08;;;;;;;4.43;3.00;;;15.80;50.70;;;;;;5065312;28;20165;-79
2021/04/26 09:59:34;;;;;;;6.47;3.50;;;15.20;49.50;;;;;;5064241;28;20280;-78
2021/04/26 10:02:01;;;;;;;6.40;2.90;;;15.10;52.20;;;;;;5064044;28;20570;-78
2021/04/26 10:04:27;;;;;;;9.30;3.30;;;15.30;50.80;;;;;;5064709;28;20165;-79
2021/04/26 10:06:53;;;;;;;5.23;3.40;;;15.30;49.70;;;;;;5082618;28;20181;-79
2021/04/26 10:09:20;;;;;;;4.47;3.10;;;15.10;51.40;;;;;;5064752;28;20250;-79
2021/04/26 10:11:46;;;;;;;5.80;3.20;;;15.00;52.20;;;;;;5064829;28;20249;-79
2021/04/26 10:14:15;;;;;;;4.83;3.00;;;15.00;51.20;;;;;;5064625;28;20643;-79
2021/04/26 10:17:00;;;;;;;6.43;3.30;;;14.80;51.70;;;;;;5083629;28;20183;-80
2021/04/26 10:19:37;;;;;;;5.53;3.10;;;14.70;51.10;;;;;;5083506;28;20185;-79
2021/04/26 10:22:05;;;;;;;2.90;2.60;;;14.60;49.30;;;;;;5082850;28;20536;-79
2021/04/26 10:24:33;;;;;;;9.93;3.43;;;14.60;50.40;;;;;;5082979;28;20646;-79
2021/04/26 10:27:01;;;;;;;3.87;2.83;;;15.00;52.70;;;;;;5083312;28;20186;-79
2021/04/26 10:29:35;;;;;;;4.50;2.73;;;15.40;52.20;;;;;;5065167;28;20209;-78
2021/04/26 10:32:06;;;;;;;6.90;3.60;;;15.50;47.70;;;;;;5082692;28;20225;-79
2021/04/26 10:34:44;;;;;;;6.20;3.27;;;15.20;50.00;;;;;;5082551;28;20207;-78
2021/04/26 10:37:16;;;;;;;6.67;3.50;;;14.90;49.40;;;;;;5082144;28;20211;-79
2021/04/26 10:39:56;;;;;;;5.77;3.47;;;14.80;51.30;;;;;;5081908;28;20552;-79
2021/04/26 10:42:45;;;;;;;7.37;3.20;;;15.10;48.40;;;;;;5081559;28;20179;-79
2021/04/26 10:45:20;;;;;;;4.97;3.57;;;15.50;50.30;;;;;;5062631;28;20204;-80
2021/04/26 10:47:54;;;;;;;5.70;3.53;;;15.80;51.20;;;;;;5064664;28;20173;-79
2021/04/26 10:50:20;;;;;;;4.77;3.10;;;16.40;50.80;;;;;;5064757;28;20200;-79
2021/04/26 10:52:56;;;;;;;4.07;3.13;;;16.50;47.20;;;;;;5083406;28;20184;-79
2021/04/26 10:55:22;;;;;;;7.10;3.90;;;16.60;47.30;;;;;;5065899;28;20542;-79
2021/04/26 10:57:55;;;;;;;5.13;3.23;;;16.40;49.20;;;;;;5063482;28;20184;-79
2021/04/26 11:00:26;;;;;;;3.53;2.77;;;16.10;49.40;;;;;;5061329;28;20395;-79
2021/04/26 11:02:53;;;;;;;3.57;2.70;;;16.10;47.10;;;;;;5062849;28;20173;-79
2021/04/26 11:05:23;;;;;;;6.83;2.70;;;16.50;47.50;;;;;;5080295;28;20168;-78
2021/04/26 11:08:13;;;;;;;4.77;3.47;;;16.70;47.50;;;;;;5082398;28;20196;-79
2021/04/26 11:10:44;;;;;;;4.93;3.30;;;16.70;48.60;;;;;;5086453;28;20205;-79
2021/04/26 11:13:34;;;;;;;8.43;4.13;;;16.60;50.20;;;;;;5071418;28;20195;-79
2021/04/26 11:16:24;;;;;;;7.73;3.90;;;16.90;48.20;;;;;;5084935;28;20192;-79
2021/04/26 11:18:59;;;;;;;6.60;4.20;;;16.80;48.30;;;;;;5081702;28;20201;-79
2021/04/26 11:21:43;;;;;;;8.13;4.10;;;16.90;50.30;;;;;;5060890;28;20196;-80
2021/04/26 11:24:10;;;;;;;6.73;3.83;;;16.50;48.90;;;;;;5061673;28;20177;-79
2021/04/26 11:26:36;;;;;;;11.77;4.20;;;17.40;52.30;;;;;;5080902;28;20169;-79
2021/04/26 11:29:02;;;;;;;9.00;4.30;;;17.60;49.10;;;;;;5078834;28;20203;-79
2021/04/26 11:31:46;;;;;;;4.30;3.80;;;18.00;49.60;;;;;;5079207;28;20248;-80
2021/04/26 11:34:15;;;;;;;5.37;3.87;;;18.20;47.80;;;;;;5060430;28;20200;-80
2021/04/26 11:37:00;;;;;;;4.67;3.67;;;18.30;43.40;;;;;;5061003;28;20274;-80
2021/04/26 11:39:45;;;;;;;6.90;3.50;;;18.40;47.40;;;;;;5078051;28;20678;-79
2021/04/26 11:42:22;;;;;;;5.67;4.10;;;18.80;47.30;;;;;;5078738;28;20157;-79
2021/04/26 11:44:49;;;;;;;4.60;3.87;;;18.90;44.80;;;;;;5077966;28;20251;-78
2021/04/26 11:47:17;;;;;;;5.63;4.13;;;18.90;44.80;;;;;;5077567;28;20264;-78
2021/04/26 11:49:46;;;;;;;6.47;3.90;;;19.30;43.80;;;;;;5077957;28;20207;-78
2021/04/26 11:52:15;;;;;;;5.20;3.33;;;19.10;42.20;;;;;;5060228;28;20232;-79
2021/04/26 11:54:43;;;;;;;7.77;4.23;;;18.40;43.10;;;;;;5077310;28;20200;-78
2021/04/26 11:57:15;;;;;;;6.13;4.33;;;19.00;43.70;;;;;;5078646;28;20173;-78
2021/04/26 11:59:52;;;;;;;5.27;4.20;;;18.40;39.90;;;;;;5059485;28;20246;-78
2021/04/26 12:02:31;;;;;;;7.30;4.17;;;17.90;45.60;;;;;;5078433;28;20207;-79
2021/04/26 12:05:05;;;;;;;5.43;4.10;;;18.80;47.60;;;;;;5061254;28;20192;-80
2021/04/26 12:07:31;;;;;;;7.70;4.77;;;19.70;41.80;;;;;;5060659;28;20222;-79
2021/04/26 12:10:03;;;;;;;6.37;4.30;;;20.10;41.60;;;;;;5078263;28;20192;-79
2021/04/26 12:12:31;;;;;;;7.53;4.70;;;20.00;43.00;;;;;;5060102;28;20203;-79
2021/04/26 12:15:06;;;;;;;8.30;4.47;;;20.60;41.50;;;;;;5060452;28;20614;-79
2021/04/26 12:17:39;;;;;;;5.53;4.67;;;21.20;40.10;;;;;;5060293;28;20656;-80
2021/04/26 12:20:09;;;;;;;7.50;4.53;;;21.80;40.80;;;;;;5080586;28;20193;-78
2021/04/26 12:22:35;;;;;;;6.57;4.63;;;22.10;42.20;;;;;;5062124;28;20161;-79
2021/04/26 12:25:04;;;;;;;7.30;4.80;;;21.90;38.10;;;;;;5062488;28;20181;-78
2021/04/26 12:27:31;;;;;;;5.10;4.20;;;21.20;39.60;;;;;;5080565;28;20212;-78
2021/04/26 12:30:15;;;;;;;6.83;4.10;;;21.90;41.50;;;;;;5063217;28;20204;-79
2021/04/26 12:32:43;;;;;;;5.47;4.53;;;21.90;41.00;;;;;;5078859;28;20176;-79
2021/04/26 12:35:30;;;;;;;7.43;4.63;;;21.70;39.70;;;;;;5059757;28;20722;-78
2021/04/26 12:37:58;;;;;;;9.73;4.90;;;21.90;40.20;;;;;;5062821;28;20170;-78
2021/04/26 12:40:25;;;;;;;6.60;4.60;;;21.70;39.10;;;;;;5080568;28;20196;-78
2021/04/26 12:43:05;;;;;;;7.83;4.70;;;21.60;40.10;;;;;;5062723;28;20285;-78
2021/04/26 12:45:36;;;;;;;9.30;4.53;;;21.80;40.20;;;;;;5063261;28;20175;-78
2021/04/26 12:48:05;;;;;;;5.27;4.50;;;22.10;40.10;;;;;;5065802;28;20182;-79
2021/04/26 12:50:38;;;;;;;7.27;5.30;;;22.40;39.20;;;;;;5085638;28;20209;-79
2021/04/26 12:53:14;;;;;;;7.70;4.50;;;22.70;38.20;;;;;;5068008;28;20187;-78
2021/04/26 12:55:53;;;;;;;6.33;4.90;;;22.70;37.50;;;;;;5066514;28;20337;-78
2021/04/26 12:58:28;;;;;;;6.93;4.53;;;22.50;39.30;;;;;;5083790;28;20165;-78
2021/04/26 13:00:55;;;;;;;4.83;4.30;;;22.60;37.60;;;;;;5083848;28;20166;-79